Nearby METAR Reports

 

KRYN - Tucson/Ryan Fld, Arizona, USA
Distance from station: SSW 16mi, 26km
Updated: Sat, 23-Jun-2018 7:45am MST
Clear
Clear
 Wind from NE
Wind: NE 6 mph , 9 km/h
Temperature: 84°F , 29°C
Dew Point: 45°F , 7°C
Humidity: 25%
Barometer: 29.92 inHg , 1013.2 hPa
Clouds: Clear
Visibility: 10 miles , 16 km
2018/06/23 14:45 KRYN 231445Z 04005KT 10SM CLR 29/07 A2992
KTUS - Tucson, Arizona, USA
Distance from station: SSE 18mi, 28km
Updated: Sat, 23-Jun-2018 7:53am MST
Clear
Clear
 Wind from SSW
Wind: SSW 15 mph , 24 km/h
Temperature: 84°F , 29°C
Dew Point: 50°F , 10°C
Humidity: 31%
Barometer: 29.94 inHg , 1013.9 hPa
Clouds: Clear
Visibility: 10 miles , 16 km
2018/06/23 14:53 KTUS 231453Z 20013KT 10SM CLR 29/10 A2994 RMK AO2 SLP083 T02890100 51022
 
KDMA - Davis/Tucson, Arizona, USA
Distance from station: SE 18mi, 29km
Updated: Sat, 23-Jun-2018 7:58am MST
Clear
Clear
 Wind from SSW
Wind: SSW 16 mph , 26 km/h, Gust: 24 mph , 39 km/h
Temperature: 84°F , 29°C
Dew Point: 50°F , 10°C
Humidity: 31%
Barometer: 29.94 inHg , 1013.9 hPa
Clouds: Clear
Visibility: 10 miles , 16 km
2018/06/23 14:58 KDMA 231458Z AUTO 21014G21KT 10SM CLR 29/10 A2994 RMK AO2 SLP088 T02850097 52025 $
KCGZ - Casa Granda, Arizona, USA
Distance from station: NW 57mi, 92km
Updated: Sat, 23-Jun-2018 7:56am MST
Clear
Clear
 Wind from S
Wind: S 20 mph , 31 km/h
Temperature: 88°F , 31°C
Dew Point: 46°F , 8°C
Humidity: 24%
Barometer: 29.83 inHg , 1010.2 hPa
Clouds: Clear
Visibility: 10 miles , 16 km
2018/06/23 14:56 KCGZ 231456Z AUTO 19017KT 10SM CLR 31/08 A2983 RMK AO2 SLP082 6//// T03110078 51022 PNO $
 
KALK - Pioneer Airfield, Arizona, USA
Distance from station: SE 65mi, 104km
Updated: Sat, 23-Jun-2018 7:56am MST
Clear
Clear
 Wind from SSW
Wind: SSW 16 mph , 26 km/h, Gust: 24 mph , 39 km/h
Temperature: 81°F , 27°C
Dew Point: 37°F , 3°C
Humidity: 21%
Barometer: 30.09 inHg , 1019 hPa
Clouds: Clear
Visibility: 10 miles , 16 km
2018/06/23 14:56 KALK 231456Z AUTO 21014G21KT 10SM CLR 27/03 A3009 RMK AO2 SLP086 T02720028 53016
KOLS - Nogales, Arizona, USA
Distance from station: S 67mi, 108km
Updated: Sat, 23-Jun-2018 7:54am MST
Clear
Clear
 Wind from SSE
Wind: SSE 12 mph , 19 km/h
Temperature: 79°F , 26°C
Dew Point: 54°F , 12°C
Humidity: 42%
Barometer: 30.06 inHg , 1017.9 hPa
Clouds: Clear
Visibility: 10 miles , 16 km
2018/06/23 14:54 KOLS 231454Z AUTO 16010KT 10SM CLR 26/12 A3006 RMK AO2 SLP098 T02560122 51017
 
KFHU - Fort Huachuca, Arizona, USA
Distance from station: SE 69mi, 110km
Updated: Sat, 23-Jun-2018 7:58am MST
Clear
Clear
 Wind from NE
Wind: NE 5 mph , 7 km/h
Temperature: 79°F , 26°C
Dew Point: 43°F , 6°C
Humidity: 28%
Barometer: 30.09 inHg , 1019 hPa
Clouds: Clear
Visibility: 10 miles , 16 km
2018/06/23 14:58 KFHU 231458Z AUTO 05004KT 10SM CLR 26/06 A3009 RMK AO2 SLP109 T02580059 52019
KIWA - Chandler/Mesa, Arizona, USA
Distance from station: NNW 73mi, 117km
Updated: Sat, 23-Jun-2018 7:53am MST
Clear
Clear
 Wind from ESE
Wind: ESE 8 mph , 13 km/h
Temperature: 86°F , 30°C
Dew Point: 46°F , 8°C
Humidity: 25%
Barometer: 29.83 inHg , 1010.2 hPa
Clouds: Clear
Visibility: 45 miles , 72 km
2018/06/23 14:53 KIWA 231453Z 12007KT 45SM SKC 30/08 A2983